LRTR/TSR METAR and TAF weather

Enter ICAO airport designator
Station Type Date Time Source
LRTR METAR 2020/07/14 16:30 UTC NOAA

LRTR 141630Z 35004KT CAVOK 24/08 Q1014


Station Type Date Time Source
LRTR Decoded METAR 2020/07/14 16:30 UTC NOAA

Timisoara, Romania (LRTR) 45-46N 021-15E 88M
Jul 14, 2020 - 12:30 PM EDT / 2020.07.14 1630 UTC
Wind: from the N (350 degrees) at 5 MPH (4 KT):0
Visibility: greater than 7 mile(s):0
Temperature: 75 F (24 C)
Dew Point: 46 F (8 C)
Relative Humidity: 35%
Pressure (altimeter): 29.94 in. Hg (1014 hPa)
ob: LRTR 141630Z 35004KT CAVOK 24/08 Q1014
cycle: 16

Station Type Date Time Source
LRTR TAF 2020/07/14 12:37 UTC NOAA

TAF LRTR 141100Z 1412/1512 VRB04KT CAVOK
TEMPO 1412/1416 35010KT

Example: see airport list